createdAt,value
2023-02-19T00:01:47.811Z,12.18
2023-02-19T00:04:14.868Z,10.45
2023-02-19T00:06:42.081Z,13.85
2023-02-19T00:09:09.088Z,15.75
2023-02-19T00:11:36.093Z,11.02
2023-02-19T00:14:03.536Z,11.77
2023-02-19T00:16:32.669Z,12.20
2023-02-19T00:18:59.862Z,13.20
2023-02-19T00:21:26.844Z,14.30
2023-02-19T00:23:53.846Z,14.45
2023-02-19T00:26:20.922Z,12.00
2023-02-19T00:28:47.998Z,13.05
2023-02-19T00:31:15.237Z,14.00
2023-02-19T00:33:42.516Z,12.75
2023-02-19T00:36:09.539Z,15.10
2023-02-19T00:38:36.480Z,17.90
2023-02-19T00:41:03.416Z,12.88
2023-02-19T00:43:30.369Z,15.75
2023-02-19T00:45:57.373Z,11.55
2023-02-19T00:48:24.327Z,21.52
2023-02-19T00:50:52.456Z,18.17
2023-02-19T00:53:19.486Z,15.02
2023-02-19T00:55:46.493Z,16.58
2023-02-19T00:58:13.451Z,14.02
2023-02-19T01:00:40.430Z,14.63
2023-02-19T01:03:07.428Z,16.98
2023-02-19T01:05:35.237Z,14.55
2023-02-19T01:08:02.281Z,17.58
2023-02-19T01:10:29.324Z,19.08
2023-02-19T01:12:56.311Z,15.27
2023-02-19T01:15:23.569Z,14.68
2023-02-19T01:17:50.522Z,14.75
2023-02-19T01:20:17.450Z,15.60
2023-02-19T01:22:44.481Z,15.02
2023-02-19T01:25:11.434Z,16.30
2023-02-19T01:27:38.404Z,14.73
2023-02-19T01:30:05.370Z,15.18
2023-02-19T01:32:32.381Z,16.48
2023-02-19T01:34:59.430Z,14.65
2023-02-19T01:37:26.386Z,17.17
2023-02-19T01:39:53.381Z,15.07
2023-02-19T01:42:20.563Z,14.35
2023-02-19T01:44:47.589Z,14.73
2023-02-19T01:47:14.836Z,11.10
2023-02-19T01:49:41.822Z,17.70
2023-02-19T01:52:08.995Z,14.70
2023-02-19T01:54:35.917Z,15.60
2023-02-19T01:57:02.890Z,16.83
2023-02-19T01:59:29.976Z,12.02
2023-02-19T02:01:59.423Z,13.05
2023-02-19T02:04:26.393Z,11.70
2023-02-19T02:06:53.397Z,9.88
2023-02-19T02:09:20.317Z,11.15
2023-02-19T02:11:47.261Z,11.20
2023-02-19T02:14:14.209Z,13.30
2023-02-19T02:16:41.409Z,7.18
2023-02-19T02:19:08.339Z,8.85
2023-02-19T02:21:35.569Z,8.70
2023-02-19T02:24:02.632Z,8.25
2023-02-19T02:26:29.582Z,9.25
2023-02-19T02:28:56.632Z,7.75
2023-02-19T02:31:23.672Z,9.82
2023-02-19T02:33:50.739Z,6.85
2023-02-19T02:36:17.740Z,7.40
2023-02-19T02:38:44.818Z,11.25
2023-02-19T02:41:12.115Z,12.70
2023-02-19T02:43:39.333Z,9.77
2023-02-19T02:46:06.373Z,11.23
2023-02-19T02:48:33.392Z,10.00
2023-02-19T02:51:00.675Z,9.20
2023-02-19T02:53:27.757Z,10.43
2023-02-19T02:55:54.718Z,13.30
2023-02-19T02:58:21.669Z,11.15
2023-02-19T03:00:48.679Z,11.90
2023-02-19T03:03:15.782Z,9.68
2023-02-19T03:05:46.064Z,8.32
2023-02-19T03:08:13.229Z,8.50
2023-02-19T03:10:40.551Z,12.82
2023-02-19T03:13:07.648Z,9.07
2023-02-19T03:15:34.697Z,9.82
2023-02-19T03:18:05.005Z,10.68
2023-02-19T03:20:34.182Z,11.30
2023-02-19T03:23:01.391Z,9.25
2023-02-19T03:25:28.640Z,8.82
2023-02-19T03:27:55.717Z,11.40
2023-02-19T03:30:23.769Z,10.88
2023-02-19T03:32:50.817Z,14.77
2023-02-19T03:35:18.033Z,7.95
2023-02-19T03:37:46.421Z,11.80
2023-02-19T03:40:13.650Z,13.07
2023-02-19T03:42:40.682Z,10.23
2023-02-19T03:45:13.653Z,12.93
2023-02-19T03:47:40.817Z,9.95
2023-02-19T03:50:08.436Z,8.50
2023-02-19T03:55:16.574Z,7.25
2023-02-19T03:57:43.771Z,9.27
2023-02-19T04:00:24.496Z,8.60
2023-02-19T04:02:51.596Z,6.50
2023-02-19T04:05:18.904Z,11.20
2023-02-19T04:07:45.975Z,9.35
2023-02-19T04:10:12.973Z,11.05
2023-02-19T04:12:39.984Z,12.38
2023-02-19T04:15:07.028Z,9.27
2023-02-19T04:17:34.085Z,11.60
2023-02-19T04:20:09.296Z,10.77
2023-02-19T04:22:36.365Z,9.52
2023-02-19T04:25:03.532Z,7.63
2023-02-19T04:27:30.616Z,11.77
2023-02-19T04:29:57.662Z,8.50
2023-02-19T04:32:24.894Z,13.63
2023-02-19T04:34:54.260Z,8.73
2023-02-19T04:37:21.485Z,13.13
2023-02-19T04:39:48.564Z,10.13
2023-02-19T04:42:15.611Z,10.00
2023-02-19T04:44:42.650Z,9.00
2023-02-19T04:47:09.796Z,8.05
2023-02-19T04:49:36.850Z,8.35
2023-02-19T04:52:03.856Z,6.93
2023-02-19T04:54:30.902Z,9.13
2023-02-19T04:56:57.892Z,10.07
2023-02-19T04:59:24.853Z,9.02
2023-02-19T05:01:51.980Z,8.07
2023-02-19T05:04:19.083Z,7.97
2023-02-19T05:06:46.362Z,10.57
2023-02-19T05:09:13.377Z,8.20
2023-02-19T05:11:40.335Z,8.77
2023-02-19T05:14:07.399Z,11.80
2023-02-19T05:16:34.403Z,11.95
2023-02-19T05:19:01.457Z,11.25
2023-02-19T05:21:28.521Z,7.10
2023-02-19T05:23:55.518Z,7.70
2023-02-19T05:26:22.530Z,11.57
2023-02-19T05:28:49.705Z,9.32
2023-02-19T05:31:16.927Z,11.10
2023-02-19T05:33:44.026Z,11.00
2023-02-19T05:36:11.018Z,12.93
2023-02-19T05:38:37.934Z,11.00
2023-02-19T05:41:04.965Z,10.25
2023-02-19T05:43:31.975Z,9.48
2023-02-19T05:45:58.917Z,6.18
2023-02-19T05:48:25.871Z,11.57
2023-02-19T05:50:52.907Z,10.65
2023-02-19T05:53:20.067Z,8.80
2023-02-19T05:55:47.028Z,10.88
2023-02-19T05:58:14.022Z,8.95
2023-02-19T06:00:41.106Z,8.05
2023-02-19T06:03:10.078Z,11.10
2023-02-19T06:05:37.063Z,11.77
2023-02-19T06:08:04.108Z,12.05
2023-02-19T06:10:31.095Z,12.23
2023-02-19T06:12:58.410Z,9.07
2023-02-19T06:15:27.812Z,8.93
2023-02-19T06:17:54.895Z,11.93
2023-02-19T06:20:21.940Z,10.82
2023-02-19T06:22:48.900Z,11.40
2023-02-19T06:25:15.916Z,10.65
2023-02-19T06:27:43.010Z,11.00
2023-02-19T06:30:10.361Z,15.85
2023-02-19T06:32:37.294Z,10.60
2023-02-19T06:35:04.266Z,11.95
2023-02-19T06:37:31.234Z,14.27
2023-02-19T06:39:58.196Z,9.20
2023-02-19T06:42:25.313Z,13.45
2023-02-19T06:44:52.279Z,12.75
2023-02-19T06:47:19.418Z,10.95
2023-02-19T06:49:46.399Z,11.35
2023-02-19T06:52:13.480Z,10.13
2023-02-19T06:54:40.416Z,9.40
2023-02-19T06:57:07.464Z,12.15
2023-02-19T06:59:34.421Z,11.30
2023-02-19T07:02:01.571Z,12.35
2023-02-19T07:04:28.913Z,12.80
2023-02-19T07:06:56.060Z,11.48
2023-02-19T07:09:23.406Z,13.68
2023-02-19T07:11:50.977Z,11.18
2023-02-19T07:14:18.323Z,9.35
2023-02-19T07:16:45.447Z,12.43
2023-02-19T07:19:12.833Z,11.30
2023-02-19T07:21:39.824Z,9.45
2023-02-19T07:24:06.838Z,13.68
2023-02-19T07:26:33.813Z,11.88
2023-02-19T07:29:01.086Z,10.27
2023-02-19T07:31:28.253Z,12.40
2023-02-19T07:33:55.212Z,11.90
2023-02-19T07:36:22.420Z,11.80
2023-02-19T07:38:49.390Z,12.73
2023-02-19T07:41:16.652Z,12.93
2023-02-19T07:43:43.697Z,12.60
2023-02-19T07:51:53.038Z,12.77
2023-02-19T07:54:20.049Z,10.70
2023-02-19T07:56:47.212Z,13.77
2023-02-19T07:59:14.286Z,12.90
2023-02-19T08:01:41.442Z,13.82
2023-02-19T08:04:08.481Z,13.50
2023-02-19T08:06:35.650Z,12.30
2023-02-19T08:09:02.653Z,11.50
2023-02-19T08:11:29.679Z,13.68
2023-02-19T08:14:04.826Z,12.30
2023-02-19T08:16:42.515Z,9.60
2023-02-19T08:19:14.162Z,8.98
2023-02-19T08:24:22.234Z,13.80
2023-02-19T08:26:50.329Z,10.57
2023-02-19T08:29:26.130Z,8.32
2023-02-19T08:31:56.029Z,13.23
2023-02-19T08:45:15.560Z,11.05
2023-02-19T08:47:44.337Z,11.27
2023-02-19T10:01:52.147Z,8.57
2023-02-19T10:04:28.143Z,7.75
2023-02-19T10:06:55.365Z,7.72
2023-02-19T10:09:30.723Z,9.40
2023-02-19T10:11:57.971Z,10.30
2023-02-19T10:14:32.178Z,7.68
2023-02-19T10:25:09.434Z,8.23
2023-02-19T10:27:37.396Z,6.80
2023-02-19T10:30:04.564Z,9.85
2023-02-19T10:32:32.605Z,11.68
2023-02-19T10:35:00.698Z,10.27
2023-02-19T10:37:29.788Z,9.95
2023-02-19T10:39:59.329Z,9.25
2023-02-19T10:42:27.609Z,10.50
2023-02-19T10:47:40.348Z,11.13
2023-02-19T10:50:15.869Z,6.63
2023-02-19T11:01:08.500Z,10.77
2023-02-19T11:03:59.916Z,8.55
2023-02-19T11:09:11.956Z,7.88
2023-02-19T11:11:46.591Z,9.68
2023-02-19T11:14:15.148Z,5.22
2023-02-19T11:19:26.536Z,5.95
2023-02-19T11:21:53.823Z,7.55
2023-02-19T11:24:22.797Z,11.15
2023-02-19T11:26:51.428Z,9.80
2023-02-19T11:29:18.711Z,7.30
2023-02-19T11:31:46.406Z,8.10
2023-02-19T11:34:13.657Z,9.48
2023-02-19T11:36:41.627Z,7.53
2023-02-19T11:39:08.922Z,8.93
2023-02-19T11:41:36.815Z,7.47
2023-02-19T12:17:22.478Z,7.65
2023-02-19T12:39:04.370Z,7.43
2023-02-19T13:12:02.758Z,7.55
2023-02-19T13:17:37.130Z,7.32
2023-02-19T13:20:04.715Z,6.53
2023-02-19T13:28:06.994Z,4.32
2023-02-19T13:36:07.172Z,7.80
2023-02-19T13:38:34.322Z,5.18
2023-02-19T14:03:04.178Z,6.57
2023-02-19T14:05:43.947Z,9.32
2023-02-19T14:49:32.042Z,7.45
2023-02-19T14:51:59.908Z,6.35
2023-02-19T14:57:09.073Z,10.23
2023-02-19T15:02:18.282Z,5.13
2023-02-19T15:04:47.579Z,10.65
2023-02-19T15:07:16.279Z,7.93
2023-02-19T15:09:43.438Z,9.70
2023-02-19T15:12:10.989Z,7.80
2023-02-19T15:14:38.425Z,8.25
2023-02-19T15:17:05.707Z,6.95
2023-02-19T15:19:33.185Z,8.63
2023-02-19T15:22:00.850Z,8.02
2023-02-19T15:24:29.176Z,7.28
2023-02-19T15:26:56.762Z,5.68
2023-02-19T15:29:23.964Z,6.63
2023-02-19T15:31:51.748Z,11.23
2023-02-19T15:34:19.266Z,8.68
2023-02-19T15:36:46.537Z,6.75
2023-02-19T15:39:13.655Z,5.53
2023-02-19T15:41:40.984Z,7.07
2023-02-19T15:44:09.592Z,7.32
2023-02-19T15:46:36.878Z,8.18
2023-02-19T15:49:04.043Z,4.55
2023-02-19T15:51:31.163Z,6.15
2023-02-19T15:53:58.318Z,7.95
2023-02-19T15:56:26.102Z,8.13
2023-02-19T15:58:53.360Z,6.93
2023-02-19T16:01:20.704Z,6.90
2023-02-19T16:03:47.918Z,8.13
2023-02-19T16:06:15.185Z,7.55
2023-02-19T16:08:42.294Z,9.95
2023-02-19T16:11:10.052Z,9.02
2023-02-19T16:13:38.076Z,10.48
2023-02-19T16:16:06.083Z,6.63
2023-02-19T16:18:33.405Z,9.25
2023-02-19T16:21:01.475Z,9.13
2023-02-19T16:23:29.256Z,7.25
2023-02-19T16:25:56.597Z,5.57
2023-02-19T16:28:39.374Z,4.03
2023-02-19T16:31:06.804Z,6.35
2023-02-19T17:32:57.643Z,10.25
2023-02-19T17:35:24.785Z,13.18
2023-02-19T17:37:57.081Z,12.30
2023-02-19T17:40:32.814Z,13.77
2023-02-19T17:45:43.027Z,11.77
2023-02-19T17:50:53.935Z,12.95
2023-02-19T17:53:23.957Z,9.30
2023-02-19T17:55:50.930Z,7.85
2023-02-19T17:58:17.855Z,5.63
2023-02-19T18:06:15.901Z,13.68
2023-02-19T18:08:52.692Z,12.05
2023-02-19T18:11:19.647Z,9.70
2023-02-19T18:13:46.535Z,12.30
2023-02-19T18:16:13.737Z,10.07
2023-02-19T18:18:40.673Z,8.23
2023-02-19T18:21:07.624Z,9.10
2023-02-19T18:23:37.159Z,8.73
2023-02-19T18:26:04.986Z,10.35
2023-02-19T18:28:33.718Z,10.88
2023-02-19T18:31:00.829Z,8.48
2023-02-19T18:33:28.338Z,12.75
2023-02-19T18:35:55.363Z,11.23
2023-02-19T18:38:22.305Z,12.45
2023-02-19T18:40:49.406Z,13.55
2023-02-19T18:43:16.508Z,13.43
2023-02-19T18:45:43.786Z,12.77
2023-02-19T18:48:10.789Z,10.77
2023-02-19T18:50:37.742Z,8.90
2023-02-19T18:53:04.650Z,11.13
2023-02-19T18:55:31.688Z,11.73
2023-02-19T18:57:58.665Z,8.00
2023-02-19T19:00:25.658Z,11.65
2023-02-19T19:02:52.721Z,10.05
2023-02-19T19:05:19.944Z,9.60
2023-02-19T19:07:46.897Z,8.88
2023-02-19T19:10:13.996Z,13.20
2023-02-19T19:12:41.227Z,15.48
2023-02-19T19:15:08.439Z,11.82
2023-02-19T19:17:38.088Z,12.43
2023-02-19T19:20:05.316Z,11.75
2023-02-19T19:22:32.233Z,11.68
2023-02-19T19:24:59.453Z,11.95
2023-02-19T19:27:26.374Z,11.63
2023-02-19T19:29:53.263Z,11.75
2023-02-19T19:32:20.243Z,12.30
2023-02-19T19:34:47.186Z,9.23
2023-02-19T19:37:14.133Z,13.15
2023-02-19T19:39:41.024Z,10.77
2023-02-19T19:42:08.011Z,11.75
2023-02-19T19:44:34.957Z,10.50
2023-02-19T19:47:02.149Z,10.77
2023-02-19T19:49:29.081Z,10.90
2023-02-19T19:51:58.292Z,11.75
2023-02-19T19:54:25.457Z,12.07
2023-02-19T19:56:52.518Z,8.80
2023-02-19T19:59:19.434Z,10.98
2023-02-19T20:01:46.624Z,8.90
2023-02-19T20:04:13.670Z,10.10
2023-02-19T20:06:40.631Z,13.55
2023-02-19T20:09:07.555Z,10.00
2023-02-19T20:11:41.313Z,9.48
2023-02-19T20:14:08.314Z,11.88
2023-02-19T20:16:35.271Z,8.75
2023-02-19T20:19:02.230Z,9.00
2023-02-19T20:21:29.247Z,9.55
2023-02-19T20:23:56.180Z,12.93
2023-02-19T20:26:45.696Z,11.45
2023-02-19T21:24:40.417Z,12.82
2023-02-19T22:40:29.021Z,10.30
2023-02-19T23:22:31.570Z,7.95
2023-02-19T23:27:48.510Z,10.48
2023-02-19T23:35:52.737Z,7.43
2023-02-19T23:38:20.428Z,11.52
2023-02-19T23:40:47.606Z,8.43
2023-02-19T23:43:14.656Z,11.27
2023-02-19T23:45:41.779Z,7.85
2023-02-19T23:48:08.732Z,11.02
2023-02-19T23:50:35.774Z,12.25
2023-02-19T23:53:02.759Z,9.90
2023-02-19T23:55:29.812Z,9.48
2023-02-19T23:57:56.911Z,8.93
